Conroe's Hourly Summary for Friday, March 17, 2017
Hour Temp
(f)
RH
(%)
Solar Rad.
(MJ/m2)
Rainfall
(in)
Wind
(mph)
3/17/2017 12:00 AM 67 78 0 0 2.94
3/17/2017 1:00 AM 67 78 0 0 3.5
3/17/2017 2:00 AM 67 78 0 0 3.73
3/17/2017 3:00 AM 67 79 0 0 2.88
3/17/2017 4:00 AM 66 80 0 0 3.12
3/17/2017 5:00 AM 66 81 0 0 2
3/17/2017 6:00 AM 65 82 0 0 2.06
3/17/2017 7:00 AM 65 82 0.02 0 1.8
3/17/2017 8:00 AM 66 81 0.25 0 2.32
3/17/2017 9:00 AM 69 71 0.91 0 3.74
3/17/2017 10:00 AM 70 67 0.6 0 2.95
3/17/2017 11:00 AM 72 61 0.8 0 3.41
3/17/2017 12:00 PM 75 54 1.55 0 3.83
3/17/2017 1:00 PM 77 49 2.22 0 4.86
3/17/2017 2:00 PM 78 46 1.86 0 4.58
3/17/2017 3:00 PM 78 49 1.82 0 4.88
3/17/2017 4:00 PM 78 48 1.33 0 4.52
3/17/2017 5:00 PM 77 51 0.74 0 4.81
3/17/2017 6:00 PM 75 56 0.29 0 3.65
3/17/2017 7:00 PM 72 61 0.03 0 3.29
3/17/2017 8:00 PM 69 66 0 0 2.99
3/17/2017 9:00 PM 68 71 0 0 2.92
3/17/2017 10:00 PM 67 73 0 0 1.68
3/17/2017 11:00 PM 66 76 0 0 0.99
Data Summary 70 67 12.42 0.00 3.23